Time;durP1;ratioP1;P1;durP2;ratioP2;P2;SDS_P1;SDS_P2;PMS_P1;PMS_P2;Temp;Humidity;BMP_temperature;BMP_pressure;BME280_temperature;BME280_humidity;BME280_pressure;Samples;Min_cycle;Max_cycle;Signal;HPM_P1;HPM_P2
2022/04/02 00:01:23;;;;;;;31.15;17.48;;;;;;;;;;4988130;28;20041;-78
2022/04/02 00:03:51;;;;;;;30.17;17.00;;;;;;;;;;4980887;28;20042;-77
2022/04/02 00:06:16;;;;;;;31.38;16.85;;;;;;;;;;4988203;28;20515;-77
2022/04/02 00:08:42;;;;;;;32.00;17.33;;;;;;;;;;4988707;28;20089;-79
2022/04/02 00:11:08;;;;;;;31.55;17.17;;;;;;;;;;4987512;28;20151;-79
2022/04/02 00:13:38;;;;;;;29.55;17.10;;;;;;;;;;4986987;28;20093;-78
2022/04/02 00:16:05;;;;;;;34.50;18.38;;;;;;;;;;4981910;28;20028;-78
2022/04/02 00:18:31;;;;;;;34.70;17.42;;;;;;;;;;4986635;28;20358;-79
2022/04/02 00:20:57;;;;;;;34.42;17.33;;;;;;;;;;4979036;28;20089;-79
2022/04/02 00:23:43;;;;;;;47.22;20.92;;;;;;;;;;4983549;28;20048;-77
2022/04/02 00:26:10;;;;;;;38.10;18.30;;;;;;;;;;4999229;28;20484;-79
2022/04/02 00:28:38;;;;;;;32.13;17.08;;;;;;;;;;4990129;28;20058;-77
2022/04/02 00:31:05;;;;;;;34.25;18.35;;;;;;;;;;4988437;28;20087;-75
2022/04/02 00:33:30;;;;;;;32.88;17.83;;;;;;;;;;4983906;28;20036;-79
2022/04/02 00:36:01;;;;;;;34.78;18.13;;;;;;;;;;4985414;28;20113;-79
2022/04/02 00:38:29;;;;;;;32.13;17.00;;;;;;;;;;4999774;28;20275;-77
2022/04/02 00:40:54;;;;;;;29.88;16.85;;;;;;;;;;5000256;28;20065;-77
2022/04/02 00:43:33;;;;;;;31.45;17.52;;;;;;;;;;4987176;28;20027;-77
2022/04/02 00:46:04;;;;;;;34.53;18.08;;;;;;;;;;4979335;28;20026;-80
2022/04/02 00:48:30;;;;;;;32.55;17.52;;;;;;;;;;4994310;28;20038;-75
2022/04/02 00:50:58;;;;;;;33.55;17.90;;;;;;;;;;4978596;28;20026;-79
2022/04/02 00:53:25;;;;;;;32.83;17.80;;;;;;;;;;4981607;28;20034;-80
2022/04/02 00:55:51;;;;;;;31.98;17.25;;;;;;;;;;4988928;28;20028;-77
2022/04/02 00:58:17;;;;;;;31.88;17.23;;;;;;;;;;4989487;28;20065;-77
2022/04/02 01:00:44;;;;;;;32.00;17.70;;;;;;;;;;4984863;28;20099;-78
2022/04/02 01:03:14;;;;;;;32.28;17.08;;;;;;;;;;4988171;28;20394;-78
2022/04/02 01:05:40;;;;;;;31.58;17.38;;;;;;;;;;4990640;28;20030;-78
2022/04/02 01:08:06;;;;;;;32.88;18.02;;;;;;;;;;4983800;28;20400;-78
2022/04/02 01:10:33;;;;;;;32.40;17.75;;;;;;;;;;4981469;28;20030;-78
2022/04/02 01:12:59;;;;;;;32.00;16.55;;;;;;;;;;4982988;28;20090;-80
2022/04/02 01:15:25;;;;;;;33.10;17.88;;;;;;;;;;4985044;28;20050;-78
2022/04/02 01:17:51;;;;;;;35.65;18.70;;;;;;;;;;4983034;28;20381;-77
2022/04/02 01:20:17;;;;;;;32.58;17.63;;;;;;;;;;4997110;28;20027;-79
2022/04/02 01:22:43;;;;;;;32.20;17.73;;;;;;;;;;4981316;28;20030;-77
2022/04/02 01:25:09;;;;;;;33.05;17.42;;;;;;;;;;4985384;28;20045;-79
2022/04/02 01:27:34;;;;;;;32.88;18.10;;;;;;;;;;4989044;28;20041;-79
2022/04/02 01:30:00;;;;;;;31.45;17.17;;;;;;;;;;4994759;28;20034;-78
2022/04/02 01:32:25;;;;;;;32.38;17.45;;;;;;;;;;4989173;28;20068;-78
2022/04/02 01:34:51;;;;;;;31.23;16.73;;;;;;;;;;4986176;28;20294;-79
2022/04/02 01:37:17;;;;;;;33.35;17.70;;;;;;;;;;4986600;28;20078;-79
2022/04/02 01:39:43;;;;;;;29.73;16.58;;;;;;;;;;4984755;28;20496;-79
2022/04/02 01:42:08;;;;;;;32.28;17.80;;;;;;;;;;4981131;28;20092;-79
2022/04/02 01:44:34;;;;;;;33.67;18.50;;;;;;;;;;4986743;28;20350;-76
2022/04/02 01:47:00;;;;;;;36.40;19.00;;;;;;;;;;4991345;28;20026;-76
2022/04/02 01:49:25;;;;;;;32.40;17.95;;;;;;;;;;4996171;28;20065;-78
2022/04/02 01:51:51;;;;;;;33.53;18.15;;;;;;;;;;4980945;28;20034;-80
2022/04/02 01:54:17;;;;;;;31.20;17.25;;;;;;;;;;4989416;28;20034;-77
2022/04/02 01:56:43;;;;;;;35.63;17.75;;;;;;;;;;4983586;28;20030;-77
2022/04/02 01:59:08;;;;;;;30.90;17.50;;;;;;;;;;4985263;28;20037;-77
2022/04/02 02:01:34;;;;;;;31.45;17.67;;;;;;;;;;4989572;28;20062;-79
2022/04/02 02:03:59;;;;;;;33.80;17.98;;;;;;;;;;4990085;28;20114;-78
2022/04/02 02:06:24;;;;;;;34.28;18.60;;;;;;;;;;4992620;28;20449;-78
2022/04/02 02:08:52;;;;;;;32.97;18.52;;;;;;;;;;4987796;28;20370;-79
2022/04/02 02:11:18;;;;;;;37.03;19.33;;;;;;;;;;5001746;28;20026;-79
2022/04/02 02:13:44;;;;;;;39.00;19.27;;;;;;;;;;4988354;28;20034;-78
2022/04/02 02:16:12;;;;;;;37.75;18.13;;;;;;;;;;4989474;28;20038;-78
2022/04/02 02:18:37;;;;;;;34.15;18.92;;;;;;;;;;4989015;28;20034;-78
2022/04/02 02:21:03;;;;;;;35.05;18.52;;;;;;;;;;4989497;28;20057;-77
2022/04/02 02:23:28;;;;;;;34.13;17.73;;;;;;;;;;4981769;28;20022;-77
2022/04/02 02:25:54;;;;;;;33.97;17.90;;;;;;;;;;4990583;28;20030;-78
2022/04/02 02:28:19;;;;;;;34.78;18.60;;;;;;;;;;4986073;28;20053;-77
2022/04/02 02:30:44;;;;;;;34.75;18.67;;;;;;;;;;4984619;28;20045;-78
2022/04/02 02:35:56;;;;;;;35.75;18.60;;;;;;;;;;4981317;28;20104;-77
2022/04/02 02:38:22;;;;;;;31.63;16.85;;;;;;;;;;4984573;28;20030;-78
2022/04/02 02:40:51;;;;;;;34.60;18.48;;;;;;;;;;4986467;28;20041;-78
2022/04/02 02:43:19;;;;;;;34.53;18.30;;;;;;;;;;4983685;28;20076;-77
2022/04/02 02:45:44;;;;;;;34.75;17.90;;;;;;;;;;4978156;28;20441;-78
2022/04/02 02:48:10;;;;;;;35.42;17.63;;;;;;;;;;4990664;28;20034;-79
2022/04/02 02:50:36;;;;;;;34.90;18.70;;;;;;;;;;4985268;28;20027;-79
2022/04/02 02:53:02;;;;;;;32.78;17.55;;;;;;;;;;4993215;28;20045;-80
2022/04/02 02:55:31;;;;;;;35.97;18.67;;;;;;;;;;4995508;28;20493;-79
2022/04/02 02:57:56;;;;;;;31.40;17.05;;;;;;;;;;4992695;28;20180;-80
2022/04/02 03:00:23;;;;;;;35.40;17.80;;;;;;;;;;4996596;28;20513;-78
2022/04/02 03:02:49;;;;;;;35.17;17.85;;;;;;;;;;4998403;28;20524;-78
2022/04/02 03:05:16;;;;;;;33.28;16.88;;;;;;;;;;4993479;28;20030;-76
2022/04/02 03:07:50;;;;;;;32.63;17.20;;;;;;;;;;4995990;28;20025;-77
2022/04/02 03:10:19;;;;;;;33.65;16.60;;;;;;;;;;4985849;28;20023;-77
2022/04/02 03:12:46;;;;;;;30.80;17.30;;;;;;;;;;4988296;28;20061;-77
2022/04/02 03:15:13;;;;;;;31.23;16.55;;;;;;;;;;4988397;28;20030;-77
2022/04/02 03:17:39;;;;;;;32.58;17.15;;;;;;;;;;4984016;28;20073;-78
2022/04/02 03:20:06;;;;;;;30.90;16.20;;;;;;;;;;4987942;28;20128;-77
2022/04/02 03:22:39;;;;;;;33.63;16.90;;;;;;;;;;4982613;28;20048;-78
2022/04/02 03:25:06;;;;;;;32.03;17.00;;;;;;;;;;4984453;28;20038;-78
2022/04/02 03:27:31;;;;;;;31.20;16.67;;;;;;;;;;4985660;28;20494;-76
2022/04/02 03:29:57;;;;;;;33.70;16.83;;;;;;;;;;4986215;28;20033;-77
2022/04/02 03:32:22;;;;;;;32.10;17.23;;;;;;;;;;4986694;28;20030;-78
2022/04/02 03:34:47;;;;;;;37.38;16.75;;;;;;;;;;4989737;28;20034;-78
2022/04/02 03:37:13;;;;;;;33.72;17.02;;;;;;;;;;4999989;28;20027;-77
2022/04/02 03:39:41;;;;;;;36.67;17.50;;;;;;;;;;4989422;28;20030;-78
2022/04/02 03:42:08;;;;;;;37.58;18.40;;;;;;;;;;4980656;28;20097;-77
2022/04/02 03:44:34;;;;;;;37.00;20.75;;;;;;;;;;4984848;28;20085;-79
2022/04/02 03:47:08;;;;;;;41.83;20.00;;;;;;;;;;4982347;28;20035;-76
2022/04/02 03:49:41;;;;;;;36.35;17.98;;;;;;;;;;4986137;28;20026;-78
2022/04/02 03:52:08;;;;;;;31.15;16.83;;;;;;;;;;4991971;28;20485;-78
2022/04/02 03:54:38;;;;;;;32.28;16.58;;;;;;;;;;5000501;28;20026;-79
2022/04/02 03:57:04;;;;;;;32.53;15.45;;;;;;;;;;4994067;28;20022;-78
2022/04/02 03:59:30;;;;;;;32.88;16.77;;;;;;;;;;4988539;28;20077;-77
2022/04/02 04:01:56;;;;;;;28.25;15.80;;;;;;;;;;4991870;28;20034;-77
2022/04/02 04:04:22;;;;;;;31.55;15.43;;;;;;;;;;4987557;28;20058;-77
2022/04/02 04:06:48;;;;;;;27.05;15.10;;;;;;;;;;4992647;28;20034;-77
2022/04/02 04:09:14;;;;;;;31.75;16.45;;;;;;;;;;4993528;28;20034;-77
2022/04/02 04:11:42;;;;;;;27.65;15.38;;;;;;;;;;4993958;28;20038;-79
2022/04/02 04:14:07;;;;;;;31.00;16.33;;;;;;;;;;5005356;28;20057;-78
2022/04/02 04:16:33;;;;;;;33.67;16.77;;;;;;;;;;4990532;28;20144;-78
2022/04/02 04:19:00;;;;;;;33.40;17.15;;;;;;;;;;4989361;28;20399;-76
2022/04/02 04:21:26;;;;;;;31.20;15.45;;;;;;;;;;4992830;28;20037;-77
2022/04/02 04:23:54;;;;;;;32.15;14.48;;;;;;;;;;4980419;28;20286;-78
2022/04/02 04:26:19;;;;;;;32.95;15.93;;;;;;;;;;4989703;28;20029;-78
2022/04/02 04:28:45;;;;;;;33.92;15.35;;;;;;;;;;4990517;28;20109;-77
2022/04/02 04:31:17;;;;;;;30.88;15.57;;;;;;;;;;4983112;28;20478;-78
2022/04/02 04:33:43;;;;;;;29.30;14.55;;;;;;;;;;4983909;28;20023;-78
2022/04/02 04:36:08;;;;;;;29.10;15.27;;;;;;;;;;4984889;28;20117;-77
2022/04/02 04:38:33;;;;;;;30.20;15.73;;;;;;;;;;4989781;28;20478;-76
2022/04/02 04:40:59;;;;;;;25.63;14.10;;;;;;;;;;4984262;28;20031;-77
2022/04/02 04:43:30;;;;;;;31.42;14.85;;;;;;;;;;4988421;28;20022;-76
2022/04/02 04:45:56;;;;;;;29.92;14.88;;;;;;;;;;4982583;28;20089;-77
2022/04/02 04:48:22;;;;;;;29.15;13.80;;;;;;;;;;4985587;28;20027;-78
2022/04/02 04:50:48;;;;;;;27.52;13.20;;;;;;;;;;4994093;28;20026;-78
2022/04/02 04:53:14;;;;;;;32.40;14.90;;;;;;;;;;4992734;28;20393;-79
2022/04/02 04:55:40;;;;;;;27.60;13.88;;;;;;;;;;5000895;28;20018;-77
2022/04/02 04:58:05;;;;;;;27.58;13.18;;;;;;;;;;5019161;28;20030;-77
2022/04/02 05:00:31;;;;;;;29.17;13.45;;;;;;;;;;4988304;28;20113;-77
2022/04/02 05:02:58;;;;;;;26.30;13.20;;;;;;;;;;4991466;28;20030;-78
2022/04/02 05:05:25;;;;;;;29.95;13.40;;;;;;;;;;4993727;28;20037;-78
2022/04/02 05:07:52;;;;;;;32.38;13.50;;;;;;;;;;4992256;28;20101;-78
2022/04/02 05:10:17;;;;;;;23.80;12.77;;;;;;;;;;4984947;28;20029;-77
2022/04/02 05:12:43;;;;;;;30.10;13.95;;;;;;;;;;4984891;28;20022;-76
2022/04/02 05:15:09;;;;;;;26.20;13.75;;;;;;;;;;4982282;28;20031;-76
2022/04/02 05:17:35;;;;;;;26.20;12.75;;;;;;;;;;4985413;28;20026;-75
2022/04/02 05:20:02;;;;;;;22.33;12.40;;;;;;;;;;4986469;28;20117;-76
2022/04/02 05:22:28;;;;;;;29.70;13.30;;;;;;;;;;4983134;28;20030;-75
2022/04/02 05:24:53;;;;;;;26.17;13.15;;;;;;;;;;4981975;28;20031;-76
2022/04/02 05:27:19;;;;;;;24.92;13.02;;;;;;;;;;4984269;28;20485;-76
2022/04/02 05:29:44;;;;;;;29.13;13.80;;;;;;;;;;4983445;28;20526;-76
2022/04/02 05:32:10;;;;;;;30.33;14.00;;;;;;;;;;4986422;28;20184;-77
2022/04/02 05:34:36;;;;;;;28.42;14.57;;;;;;;;;;4980295;28;20070;-76
2022/04/02 05:37:02;;;;;;;33.60;15.48;;;;;;;;;;4981985;28;20027;-76
2022/04/02 05:39:27;;;;;;;35.92;17.42;;;;;;;;;;4983357;28;20026;-75
2022/04/02 05:41:53;;;;;;;36.28;18.77;;;;;;;;;;4976536;28;20086;-77
2022/04/02 05:44:18;;;;;;;43.10;18.60;;;;;;;;;;4981337;28;20030;-76
2022/04/02 05:46:44;;;;;;;45.30;19.50;;;;;;;;;;4981128;28;20030;-76
2022/04/02 05:49:09;;;;;;;36.83;18.27;;;;;;;;;;4987560;28;20076;-75
2022/04/02 05:51:35;;;;;;;46.03;19.63;;;;;;;;;;4983276;28;20413;-77
2022/04/02 05:54:01;;;;;;;36.20;17.80;;;;;;;;;;4983329;28;20085;-77
2022/04/02 05:56:27;;;;;;;36.90;17.25;;;;;;;;;;4986887;28;20580;-76
2022/04/02 05:58:54;;;;;;;35.22;16.33;;;;;;;;;;4984373;28;20037;-77
2022/04/02 06:01:19;;;;;;;31.63;15.18;;;;;;;;;;4984223;28;20036;-77
2022/04/02 06:03:46;;;;;;;29.25;14.57;;;;;;;;;;4983791;28;20395;-76
2022/04/02 06:06:12;;;;;;;29.73;13.88;;;;;;;;;;4983614;28;20022;-77
2022/04/02 06:08:37;;;;;;;23.48;12.15;;;;;;;;;;4985339;28;20041;-77
2022/04/02 06:11:03;;;;;;;19.63;11.73;;;;;;;;;;4984599;28;20460;-76
2022/04/02 06:13:28;;;;;;;21.65;12.00;;;;;;;;;;4981407;28;20081;-76
2022/04/02 06:15:54;;;;;;;24.98;13.30;;;;;;;;;;4986887;28;20310;-77
2022/04/02 06:18:20;;;;;;;25.95;12.35;;;;;;;;;;4983589;28;20034;-77
2022/04/02 06:20:49;;;;;;;26.90;12.43;;;;;;;;;;4984416;28;20019;-76
2022/04/02 06:23:15;;;;;;;30.10;13.20;;;;;;;;;;4979940;28;20034;-76
2022/04/02 06:25:40;;;;;;;21.88;12.23;;;;;;;;;;4981386;28;20469;-76
2022/04/02 06:28:06;;;;;;;24.25;12.23;;;;;;;;;;4985069;28;20042;-77
2022/04/02 06:30:35;;;;;;;21.17;11.55;;;;;;;;;;4993025;28;20019;-78
2022/04/02 06:33:04;;;;;;;20.50;11.18;;;;;;;;;;4985469;28;20031;-76
2022/04/02 06:35:30;;;;;;;19.45;10.88;;;;;;;;;;4999026;28;20050;-77
2022/04/02 06:37:55;;;;;;;20.27;11.43;;;;;;;;;;4980639;28;20453;-76
2022/04/02 06:40:25;;;;;;;23.15;11.05;;;;;;;;;;4984910;28;20084;-76
2022/04/02 06:42:51;;;;;;;21.85;11.82;;;;;;;;;;4948875;28;1146318;-76
2022/04/02 06:45:18;;;;;;;21.45;11.13;;;;;;;;;;4978974;28;20131;-76
2022/04/02 06:47:44;;;;;;;20.35;11.45;;;;;;;;;;4979115;28;20469;-77
2022/04/02 06:50:11;;;;;;;21.08;11.75;;;;;;;;;;4981938;28;20078;-75
2022/04/02 06:52:38;;;;;;;24.00;11.70;;;;;;;;;;4985221;28;20211;-76
2022/04/02 06:55:04;;;;;;;27.58;12.35;;;;;;;;;;4987310;28;20100;-76
2022/04/02 06:57:30;;;;;;;22.35;12.40;;;;;;;;;;4985574;28;20129;-76
2022/04/02 06:59:56;;;;;;;25.15;12.75;;;;;;;;;;4988017;28;20111;-77
2022/04/02 07:02:24;;;;;;;24.30;11.93;;;;;;;;;;4992054;28;20093;-77
2022/04/02 07:04:50;;;;;;;23.95;12.45;;;;;;;;;;4992041;28;20052;-77
2022/04/02 07:07:15;;;;;;;21.52;11.80;;;;;;;;;;4987121;28;20038;-77
2022/04/02 07:09:43;;;;;;;21.25;12.02;;;;;;;;;;4987398;28;20034;-77
2022/04/02 07:12:12;;;;;;;23.08;12.30;;;;;;;;;;4989130;28;20061;-77
2022/04/02 07:14:38;;;;;;;20.92;12.50;;;;;;;;;;4984999;28;20022;-76
2022/04/02 07:17:03;;;;;;;23.13;11.73;;;;;;;;;;4979178;28;20049;-76
2022/04/02 07:19:30;;;;;;;24.63;12.77;;;;;;;;;;4982216;28;21456;-76
2022/04/02 07:21:56;;;;;;;21.90;12.38;;;;;;;;;;4991465;28;20330;-77
2022/04/02 07:24:22;;;;;;;20.20;11.10;;;;;;;;;;4990489;28;20392;-77
2022/04/02 07:26:54;;;;;;;20.77;11.48;;;;;;;;;;4984151;28;20109;-76
2022/04/02 07:29:20;;;;;;;20.17;10.98;;;;;;;;;;4992785;28;20045;-78
2022/04/02 07:31:45;;;;;;;19.17;11.45;;;;;;;;;;4985807;28;20019;-77
2022/04/02 07:34:12;;;;;;;20.73;11.63;;;;;;;;;;4991000;28;20065;-76
2022/04/02 07:36:57;;;;;;;20.05;11.30;;;;;;;;;;4986440;28;20026;-77
2022/04/02 07:39:34;;;;;;;23.08;13.15;;;;;;;;;;4991013;28;20084;-76
2022/04/02 07:42:12;;;;;;;21.15;12.95;;;;;;;;;;4980414;28;20037;-77
2022/04/02 07:45:05;;;;;;;23.23;13.23;;;;;;;;;;4985051;28;20441;-77
2022/04/02 07:47:33;;;;;;;23.73;12.82;;;;;;;;;;4991809;28;20026;-77
2022/04/02 07:50:04;;;;;;;21.92;12.48;;;;;;;;;;4987625;28;20027;-77
2022/04/02 07:52:30;;;;;;;19.42;10.85;;;;;;;;;;4988696;28;20030;-76
2022/04/02 07:54:58;;;;;;;19.15;11.32;;;;;;;;;;4977290;28;20393;-77
2022/04/02 07:57:27;;;;;;;20.08;11.45;;;;;;;;;;4990873;28;20034;-76
2022/04/02 08:00:04;;;;;;;22.83;12.40;;;;;;;;;;4986852;28;20035;-76
2022/04/02 08:02:39;;;;;;;18.42;11.80;;;;;;;;;;4995424;28;20065;-76
2022/04/02 08:05:12;;;;;;;23.33;12.65;;;;;;;;;;4991383;28;20026;-76
2022/04/02 08:07:49;;;;;;;20.50;12.25;;;;;;;;;;4987986;28;20026;-77
2022/04/02 08:10:17;;;;;;;20.23;12.10;;;;;;;;;;4987265;28;20018;-78
2022/04/02 08:12:43;;;;;;;17.88;10.88;;;;;;;;;;4992484;28;20477;-78
2022/04/02 08:15:18;;;;;;;20.20;12.27;;;;;;;;;;4989311;28;20053;-78
2022/04/02 08:17:53;;;;;;;23.02;13.40;;;;;;;;;;4987243;28;20523;-77
2022/04/02 08:20:19;;;;;;;19.10;11.35;;;;;;;;;;4991580;28;20058;-78
2022/04/02 08:22:45;;;;;;;21.05;10.75;;;;;;;;;;4988504;28;20422;-79
2022/04/02 08:25:12;;;;;;;19.83;10.57;;;;;;;;;;4990347;28;20026;-79
2022/04/02 08:27:55;;;;;;;18.17;11.13;;;;;;;;;;4982423;28;20122;-77
2022/04/02 08:30:30;;;;;;;18.35;10.73;;;;;;;;;;4991497;28;20030;-77
2022/04/02 08:33:08;;;;;;;15.98;10.10;;;;;;;;;;4984155;28;20026;-78
2022/04/02 08:36:19;;;;;;;18.98;11.60;;;;;;;;;;4987364;28;20129;-76
2022/04/02 08:38:55;;;;;;;16.73;9.45;;;;;;;;;;4938556;29;20032;-77
2022/04/02 08:41:54;;;;;;;26.40;13.88;;;;;;;;;;4974687;28;20097;-76
2022/04/02 08:44:49;;;;;;;21.52;11.82;;;;;;;;;;4977906;28;20149;-76
2022/04/02 08:47:46;;;;;;;20.83;10.30;;;;;;;;;;4996908;28;20038;-76
2022/04/02 08:50:14;;;;;;;18.83;10.25;;;;;;;;;;4983914;28;20026;-76
2022/04/02 08:52:55;;;;;;;19.20;11.27;;;;;;;;;;4985793;28;20026;-76
2022/04/02 08:55:34;;;;;;;21.55;11.63;;;;;;;;;;4983883;28;20034;-76
2022/04/02 08:58:02;;;;;;;20.67;11.30;;;;;;;;;;5000515;28;20034;-76
2022/04/02 09:00:35;;;;;;;18.02;10.57;;;;;;;;;;4980875;28;20102;-77
2022/04/02 09:03:14;;;;;;;20.75;11.00;;;;;;;;;;4985835;28;20113;-76
2022/04/02 09:06:10;;;;;;;17.60;10.53;;;;;;;;;;4981324;28;20045;-75
2022/04/02 09:09:03;;;;;;;17.88;9.82;;;;;;;;;;4982751;28;20568;-77
2022/04/02 09:11:49;;;;;;;26.63;12.10;;;;;;;;;;4978307;28;20019;-76
2022/04/02 09:14:44;;;;;;;27.90;12.25;;;;;;;;;;4999233;28;20462;-76
2022/04/02 09:17:35;;;;;;;20.33;10.57;;;;;;;;;;4943854;28;20516;-77
2022/04/02 09:20:07;;;;;;;19.35;10.13;;;;;;;;;;4981228;28;20022;-75
2022/04/02 09:22:57;;;;;;;17.45;10.35;;;;;;;;;;4980185;28;20101;-76
2022/04/02 09:25:41;;;;;;;18.20;10.25;;;;;;;;;;4983852;28;20144;-75
2022/04/02 09:28:44;;;;;;;20.60;11.20;;;;;;;;;;4985843;28;20048;-77
2022/04/02 09:31:21;;;;;;;23.25;11.82;;;;;;;;;;4979704;28;20604;-76
2022/04/02 09:34:10;;;;;;;18.50;10.38;;;;;;;;;;4987626;28;20441;-75
2022/04/02 09:36:59;;;;;;;18.58;10.15;;;;;;;;;;4981753;28;20093;-75
2022/04/02 09:39:39;;;;;;;23.02;11.43;;;;;;;;;;4978455;28;20033;-76
2022/04/02 09:42:20;;;;;;;21.00;10.88;;;;;;;;;;4973869;28;20026;-76
2022/04/02 09:44:59;;;;;;;24.02;11.85;;;;;;;;;;4976986;28;20078;-76
2022/04/02 09:47:55;;;;;;;46.22;15.43;;;;;;;;;;4986031;28;20026;-76
2022/04/02 09:50:26;;;;;;;39.13;15.02;;;;;;;;;;4986386;28;20063;-76
2022/04/02 09:53:00;;;;;;;21.13;11.38;;;;;;;;;;4977166;28;20034;-75
2022/04/02 09:55:32;;;;;;;18.73;10.30;;;;;;;;;;4980132;28;20038;-77
2022/04/02 09:58:16;;;;;;;33.63;13.98;;;;;;;;;;4992369;28;20034;-76
2022/04/02 10:00:50;;;;;;;22.95;11.27;;;;;;;;;;4982847;28;20033;-76
2022/04/02 10:03:32;;;;;;;17.73;10.23;;;;;;;;;;4986757;28;20080;-76
2022/04/02 10:06:15;;;;;;;16.48;10.10;;;;;;;;;;4984412;28;20026;-76
2022/04/02 10:09:05;;;;;;;17.35;9.88;;;;;;;;;;4988200;28;20021;-76
2022/04/02 10:11:32;;;;;;;20.95;10.15;;;;;;;;;;4982441;28;20046;-76
2022/04/02 10:13:59;;;;;;;20.75;9.98;;;;;;;;;;4996680;28;20568;-77
2022/04/02 10:16:29;;;;;;;19.05;10.98;;;;;;;;;;4980616;28;20026;-76
2022/04/02 10:19:06;;;;;;;18.23;10.20;;;;;;;;;;4987539;28;20469;-77
2022/04/02 10:21:35;;;;;;;17.38;10.45;;;;;;;;;;4984496;28;20054;-76
2022/04/02 10:24:11;;;;;;;21.07;10.90;;;;;;;;;;4987526;28;20023;-77
2022/04/02 10:26:39;;;;;;;19.33;10.52;;;;;;;;;;4984518;28;20041;-77
2022/04/02 10:29:13;;;;;;;18.45;10.95;;;;;;;;;;4978581;28;20041;-77
2022/04/02 10:31:50;;;;;;;22.25;11.63;;;;;;;;;;4985226;28;20111;-76
2022/04/02 10:34:15;;;;;;;17.70;10.73;;;;;;;;;;4987201;28;20401;-76
2022/04/02 10:36:48;;;;;;;21.35;12.35;;;;;;;;;;4985678;28;20025;-76
2022/04/02 10:39:21;;;;;;;25.38;12.23;;;;;;;;;;4976686;28;20026;-76
2022/04/02 10:41:53;;;;;;;24.20;13.35;;;;;;;;;;4984203;28;20023;-77
2022/04/02 10:44:33;;;;;;;33.78;17.98;;;;;;;;;;4977855;28;20045;-76
2022/04/02 10:47:03;;;;;;;27.77;13.88;;;;;;;;;;4984106;28;20028;-76
2022/04/02 10:49:33;;;;;;;;;;;;;;;;;;4982481;28;20026;-76
2022/04/02 10:52:01;;;;;;;21.52;11.60;;;;;;;;;;4981696;28;19917;-76
2022/04/02 10:54:29;;;;;;;37.95;14.63;;;;;;;;;;4982908;28;20110;-77
2022/04/02 10:56:55;;;;;;;33.67;14.07;;;;;;;;;;4991528;28;20030;-77
2022/04/02 10:59:31;;;;;;;20.58;11.93;;;;;;;;;;4982904;28;20027;-77
2022/04/02 11:02:01;;;;;;;24.50;14.60;;;;;;;;;;4987578;28;20054;-76
2022/04/02 11:05:11;;;;;;;35.65;19.90;;;;;;;;;;4987453;28;20037;-76
2022/04/02 11:07:46;;;;;;;31.35;20.30;;;;;;;;;;4984820;28;20412;-75
2022/04/02 11:10:21;;;;;;;44.88;22.88;;;;;;;;;;4986439;28;20466;-75
2022/04/02 11:12:57;;;;;;;34.83;20.08;;;;;;;;;;4985032;28;20022;-76
2022/04/02 11:15:24;;;;;;;37.40;22.27;;;;;;;;;;4988332;28;20029;-76
2022/04/02 11:17:54;;;;;;;101.70;36.53;;;;;;;;;;4988328;28;20026;-76
2022/04/02 11:20:20;;;;;;;66.70;25.27;;;;;;;;;;4985235;28;20062;-76
2022/04/02 11:22:52;;;;;;;70.05;32.20;;;;;;;;;;4985171;28;20076;-76
2022/04/02 11:25:23;;;;;;;80.47;34.40;;;;;;;;;;4985835;28;20516;-76
2022/04/02 11:27:54;;;;;;;78.88;32.28;;;;;;;;;;4985042;28;20066;-76
2022/04/02 11:30:20;;;;;;;59.33;22.88;;;;;;;;;;4988209;28;20034;-77
2022/04/02 11:32:50;;;;;;;55.58;20.55;;;;;;;;;;4984319;28;20568;-76
2022/04/02 11:35:16;;;;;;;;;;;;;;;;;;4984596;28;20054;-76
2022/04/02 11:38:02;;;;;;;67.82;27.17;;;;;;;;;;4980781;28;20032;-76
2022/04/02 11:40:29;;;;;;;89.65;29.33;;;;;;;;;;4987934;28;20038;-76
2022/04/02 11:43:00;;;;;;;98.15;30.50;;;;;;;;;;4986027;28;20033;-76
2022/04/02 11:45:26;;;;;;;168.45;49.58;;;;;;;;;;4989712;28;20022;-75
2022/04/02 11:47:59;;;;;;;88.65;28.77;;;;;;;;;;4987834;28;20050;-76
2022/04/02 11:50:26;;;;;;;60.00;21.90;;;;;;;;;;4989057;28;20015;-76
2022/04/02 11:52:57;;;;;;;29.17;13.85;;;;;;;;;;4992379;28;20025;-76
2022/04/02 11:55:27;;;;;;;86.85;29.77;;;;;;;;;;4988618;28;20122;-76
2022/04/02 11:57:57;;;;;;;65.13;27.63;;;;;;;;;;4989530;28;20026;-75
2022/04/02 12:00:30;;;;;;;43.00;19.55;;;;;;;;;;4985279;28;20035;-75
2022/04/02 12:02:56;;;;;;;29.42;15.18;;;;;;;;;;4983055;28;20057;-76
2022/04/02 12:05:44;;;;;;;24.35;14.50;;;;;;;;;;4987121;28;20073;-75
2022/04/02 12:08:10;;;;;;;20.13;11.90;;;;;;;;;;5001623;28;20514;-76
2022/04/02 12:10:51;;;;;;;19.27;13.02;;;;;;;;;;4985050;28;20030;-75
2022/04/02 12:13:16;;;;;;;19.52;11.60;;;;;;;;;;4987069;28;20449;-76
2022/04/02 12:15:59;;;;;;;20.73;13.60;;;;;;;;;;4982186;28;20057;-77
2022/04/02 12:18:28;;;;;;;20.65;12.43;;;;;;;;;;4987239;28;20023;-76
2022/04/02 12:21:05;;;;;;;23.42;12.98;;;;;;;;;;4985295;28;20109;-77
2022/04/02 12:23:31;;;;;;;21.67;12.73;;;;;;;;;;4978867;28;20034;-76
2022/04/02 12:25:58;;;;;;;22.90;13.93;;;;;;;;;;4979209;28;20030;-76
2022/04/02 12:28:25;;;;;;;22.67;13.85;;;;;;;;;;4989513;28;20054;-76
2022/04/02 12:30:52;;;;;;;26.15;15.52;;;;;;;;;;4985243;28;20018;-77
2022/04/02 12:33:21;;;;;;;22.60;14.30;;;;;;;;;;4984185;28;20034;-77
2022/04/02 12:35:59;;;;;;;26.80;15.43;;;;;;;;;;4977756;28;20386;-78
2022/04/02 12:38:28;;;;;;;25.02;14.80;;;;;;;;;;4982309;28;20049;-77
2022/04/02 12:40:56;;;;;;;24.08;14.05;;;;;;;;;;4982345;28;20033;-77
2022/04/02 12:43:34;;;;;;;28.60;15.48;;;;;;;;;;4991618;28;20116;-77
2022/04/02 12:46:01;;;;;;;29.25;17.08;;;;;;;;;;4986173;28;20105;-77
2022/04/02 12:48:41;;;;;;;26.30;13.98;;;;;;;;;;4990973;28;20026;-77
2022/04/02 12:51:16;;;;;;;25.60;15.13;;;;;;;;;;4987843;28;20418;-77
2022/04/02 12:53:52;;;;;;;25.10;13.85;;;;;;;;;;4990776;28;20036;-77
2022/04/02 12:56:19;;;;;;;25.85;14.20;;;;;;;;;;4991565;28;20030;-77
2022/04/02 12:58:47;;;;;;;22.08;13.38;;;;;;;;;;4986661;28;20482;-77
2022/04/02 13:01:17;;;;;;;23.75;13.45;;;;;;;;;;4987064;28;20058;-77
2022/04/02 13:03:44;;;;;;;25.15;13.77;;;;;;;;;;4997440;28;20057;-78
2022/04/02 13:06:19;;;;;;;40.90;19.48;;;;;;;;;;5021795;28;20029;-77
2022/04/02 13:09:04;;;;;;;26.10;14.93;;;;;;;;;;4998074;28;20041;-77
2022/04/02 13:12:21;;;;;;;26.98;15.93;;;;;;;;;;4994463;28;20033;-77
2022/04/02 13:15:01;;;;;;;43.28;20.48;;;;;;;;;;5003064;28;20053;-77
2022/04/02 13:17:37;;;;;;;;;;;;;;;;;;5018998;28;20011;-77
2022/04/02 13:22:54;;;;;;;42.13;19.67;;;;;;;;;;4988355;28;20251;-78
2022/04/02 13:25:24;;;;;;;35.13;19.15;;;;;;;;;;4987900;28;20153;-77
2022/04/02 13:28:05;;;;;;;37.45;17.38;;;;;;;;;;4987887;28;20086;-77
2022/04/02 13:30:42;;;;;;;30.50;16.95;;;;;;;;;;4985257;28;20022;-77
2022/04/02 13:33:26;;;;;;;36.10;18.08;;;;;;;;;;4983538;28;20031;-77
2022/04/02 13:36:01;;;;;;;42.25;19.50;;;;;;;;;;4985017;28;20037;-78
2022/04/02 13:38:48;;;;;;;48.35;20.77;;;;;;;;;;4981466;28;20030;-77
2022/04/02 13:41:27;;;;;;;31.63;16.83;;;;;;;;;;4983045;28;20041;-77
2022/04/02 13:43:55;;;;;;;25.58;14.13;;;;;;;;;;4985398;28;20112;-77
2022/04/02 13:46:25;;;;;;;23.92;14.35;;;;;;;;;;4986155;28;20022;-78
2022/04/02 13:49:11;;;;;;;59.20;29.98;;;;;;;;;;4999956;28;20178;-77
2022/04/02 13:51:43;;;;;;;31.00;17.40;;;;;;;;;;4981345;28;20053;-77
2022/04/02 13:54:34;;;;;;;34.75;18.38;;;;;;;;;;4986922;28;20038;-77
2022/04/02 13:57:10;;;;;;;37.10;18.85;;;;;;;;;;4986319;28;20615;-77
2022/04/02 14:00:05;;;;;;;43.58;21.60;;;;;;;;;;4975424;28;20410;-76
2022/04/02 14:02:34;;;;;;;31.45;17.77;;;;;;;;;;4978585;28;20043;-77
2022/04/02 14:05:28;;;;;;;37.92;19.67;;;;;;;;;;4987388;28;20072;-77
2022/04/02 14:08:04;;;;;;;46.63;22.33;;;;;;;;;;4981301;28;20097;-77
2022/04/02 14:10:52;;;;;;;36.15;18.40;;;;;;;;;;4992420;28;20025;-77
2022/04/02 14:13:22;;;;;;;32.13;17.52;;;;;;;;;;4984382;28;20034;-77
2022/04/02 14:15:57;;;;;;;24.98;14.57;;;;;;;;;;4986488;28;20030;-78
2022/04/02 14:18:25;;;;;;;34.45;18.25;;;;;;;;;;4986234;28;20041;-77
2022/04/02 14:21:17;;;;;;;33.53;17.63;;;;;;;;;;4982968;28;20038;-77
2022/04/02 14:24:20;;;;;;;33.10;16.20;;;;;;;;;;4988658;28;20114;-78
2022/04/02 14:27:14;;;;;;;28.13;16.00;;;;;;;;;;4983692;28;20033;-77
2022/04/02 14:30:06;;;;;;;28.33;16.67;;;;;;;;;;4988052;28;20307;-77
2022/04/02 14:33:10;;;;;;;36.42;19.05;;;;;;;;;;4980620;28;20030;-77
2022/04/02 14:36:00;;;;;;;28.98;16.85;;;;;;;;;;4979113;28;20030;-77
2022/04/02 14:38:46;;;;;;;30.05;16.05;;;;;;;;;;4997169;28;20018;-77
2022/04/02 14:41:43;;;;;;;28.00;16.35;;;;;;;;;;4980750;28;20058;-78
2022/04/02 14:44:17;;;;;;;27.77;15.38;;;;;;;;;;4991013;28;20041;-78
2022/04/02 14:47:11;;;;;;;35.67;18.15;;;;;;;;;;4984058;28;20093;-77
2022/04/02 14:49:54;;;;;;;27.23;16.48;;;;;;;;;;4993048;28;20092;-78